sensor_id;sensor_type;location;lat;lon;timestamp;P1;durP1;ratioP1;P2;durP2;ratioP2
75061;SDS011;63641;46.526;24.612;2023-04-25T00:00:17;7.10;;;5.40;;
75061;SDS011;63641;46.526;24.612;2023-04-25T00:02:44;6.68;;;5.95;;
75061;SDS011;63641;46.526;24.612;2023-04-25T00:05:11;6.50;;;5.88;;
75061;SDS011;63641;46.526;24.612;2023-04-25T00:07:38;7.60;;;5.88;;
75061;SDS011;63641;46.526;24.612;2023-04-25T00:10:05;6.53;;;5.88;;
75061;SDS011;63641;46.526;24.612;2023-04-25T00:12:32;6.78;;;6.18;;
75061;SDS011;63641;46.526;24.612;2023-04-25T00:15:00;6.60;;;5.90;;
75061;SDS011;63641;46.526;24.612;2023-04-25T00:17:27;6.53;;;5.93;;
75061;SDS011;63641;46.526;24.612;2023-04-25T00:19:54;8.23;;;6.50;;
75061;SDS011;63641;46.526;24.612;2023-04-25T00:22:22;7.20;;;6.50;;
75061;SDS011;63641;46.526;24.612;2023-04-25T00:24:48;7.07;;;6.43;;
75061;SDS011;63641;46.526;24.612;2023-04-25T00:27:15;7.97;;;6.32;;
75061;SDS011;63641;46.526;24.612;2023-04-25T00:29:42;6.75;;;6.15;;
75061;SDS011;63641;46.526;24.612;2023-04-25T00:32:09;7.90;;;6.30;;
75061;SDS011;63641;46.526;24.612;2023-04-25T00:34:36;6.93;;;5.72;;
75061;SDS011;63641;46.526;24.612;2023-04-25T00:37:02;6.85;;;6.15;;
75061;SDS011;63641;46.526;24.612;2023-04-25T00:39:29;6.15;;;5.55;;
75061;SDS011;63641;46.526;24.612;2023-04-25T00:41:56;6.82;;;6.22;;
75061;SDS011;63641;46.526;24.612;2023-04-25T00:44:24;6.93;;;6.22;;
75061;SDS011;63641;46.526;24.612;2023-04-25T00:46:51;6.72;;;6.13;;
75061;SDS011;63641;46.526;24.612;2023-04-25T00:49:20;6.88;;;6.07;;
75061;SDS011;63641;46.526;24.612;2023-04-25T00:51:47;6.43;;;5.93;;
75061;SDS011;63641;46.526;24.612;2023-04-25T00:54:14;7.05;;;6.22;;
75061;SDS011;63641;46.526;24.612;2023-04-25T00:56:41;6.82;;;5.85;;
75061;SDS011;63641;46.526;24.612;2023-04-25T00:59:09;7.32;;;6.63;;
75061;SDS011;63641;46.526;24.612;2023-04-25T01:01:36;6.80;;;6.20;;
75061;SDS011;63641;46.526;24.612;2023-04-25T01:04:04;6.80;;;6.20;;
75061;SDS011;63641;46.526;24.612;2023-04-25T01:06:31;7.28;;;6.15;;
75061;SDS011;63641;46.526;24.612;2023-04-25T01:08:58;7.18;;;6.53;;
75061;SDS011;63641;46.526;24.612;2023-04-25T01:11:25;8.27;;;6.85;;
75061;SDS011;63641;46.526;24.612;2023-04-25T01:13:52;7.20;;;6.60;;
75061;SDS011;63641;46.526;24.612;2023-04-25T01:16:19;6.88;;;6.13;;
75061;SDS011;63641;46.526;24.612;2023-04-25T01:18:46;7.15;;;6.55;;
75061;SDS011;63641;46.526;24.612;2023-04-25T01:21:14;7.88;;;7.18;;
75061;SDS011;63641;46.526;24.612;2023-04-25T01:23:41;7.25;;;6.65;;
75061;SDS011;63641;46.526;24.612;2023-04-25T01:26:10;8.07;;;7.35;;
75061;SDS011;63641;46.526;24.612;2023-04-25T01:28:38;7.13;;;6.43;;
75061;SDS011;63641;46.526;24.612;2023-04-25T01:33:38;8.40;;;6.07;;
75061;SDS011;63641;46.526;24.612;2023-04-25T01:36:05;6.70;;;6.00;;
75061;SDS011;63641;46.526;24.612;2023-04-25T01:38:32;7.85;;;7.07;;
75061;SDS011;63641;46.526;24.612;2023-04-25T01:40:59;8.10;;;7.10;;
75061;SDS011;63641;46.526;24.612;2023-04-25T01:43:26;9.18;;;7.53;;
75061;SDS011;63641;46.526;24.612;2023-04-25T01:45:53;10.60;;;7.93;;
75061;SDS011;63641;46.526;24.612;2023-04-25T01:48:20;9.60;;;6.47;;
75061;SDS011;63641;46.526;24.612;2023-04-25T01:50:47;7.43;;;6.30;;
75061;SDS011;63641;46.526;24.612;2023-04-25T01:53:14;7.43;;;6.72;;
75061;SDS011;63641;46.526;24.612;2023-04-25T01:55:41;7.97;;;7.20;;
75061;SDS011;63641;46.526;24.612;2023-04-25T01:58:08;7.63;;;6.82;;
75061;SDS011;63641;46.526;24.612;2023-04-25T02:00:36;7.65;;;6.95;;
75061;SDS011;63641;46.526;24.612;2023-04-25T02:03:07;7.70;;;6.97;;
75061;SDS011;63641;46.526;24.612;2023-04-25T02:05:38;7.13;;;6.53;;
75061;SDS011;63641;46.526;24.612;2023-04-25T02:08:06;7.65;;;6.82;;
75061;SDS011;63641;46.526;24.612;2023-04-25T02:10:34;7.35;;;6.60;;
75061;SDS011;63641;46.526;24.612;2023-04-25T02:13:01;7.38;;;6.70;;
75061;SDS011;63641;46.526;24.612;2023-04-25T02:15:29;7.60;;;6.80;;
75061;SDS011;63641;46.526;24.612;2023-04-25T02:17:56;8.07;;;6.90;;
75061;SDS011;63641;46.526;24.612;2023-04-25T02:20:23;7.93;;;7.13;;
75061;SDS011;63641;46.526;24.612;2023-04-25T02:22:51;7.97;;;7.18;;
75061;SDS011;63641;46.526;24.612;2023-04-25T02:25:18;10.68;;;7.00;;
75061;SDS011;63641;46.526;24.612;2023-04-25T02:27:46;7.72;;;7.00;;
75061;SDS011;63641;46.526;24.612;2023-04-25T02:30:14;8.05;;;7.25;;
75061;SDS011;63641;46.526;24.612;2023-04-25T02:32:41;8.68;;;7.78;;
75061;SDS011;63641;46.526;24.612;2023-04-25T02:35:08;8.05;;;7.30;;
75061;SDS011;63641;46.526;24.612;2023-04-25T02:37:36;7.75;;;7.03;;
75061;SDS011;63641;46.526;24.612;2023-04-25T02:40:04;7.95;;;7.22;;
75061;SDS011;63641;46.526;24.612;2023-04-25T02:42:31;8.32;;;7.22;;
75061;SDS011;63641;46.526;24.612;2023-04-25T02:44:58;9.02;;;8.13;;
75061;SDS011;63641;46.526;24.612;2023-04-25T02:47:25;7.45;;;6.68;;
75061;SDS011;63641;46.526;24.612;2023-04-25T02:49:52;8.02;;;7.10;;
75061;SDS011;63641;46.526;24.612;2023-04-25T02:52:19;7.43;;;6.72;;
75061;SDS011;63641;46.526;24.612;2023-04-25T02:54:47;8.43;;;7.25;;
75061;SDS011;63641;46.526;24.612;2023-04-25T02:57:14;8.63;;;6.97;;
75061;SDS011;63641;46.526;24.612;2023-04-25T02:59:41;8.38;;;7.40;;
75061;SDS011;63641;46.526;24.612;2023-04-25T03:02:07;8.57;;;7.70;;
75061;SDS011;63641;46.526;24.612;2023-04-25T03:04:34;9.30;;;7.25;;
75061;SDS011;63641;46.526;24.612;2023-04-25T03:07:01;8.30;;;7.50;;
75061;SDS011;63641;46.526;24.612;2023-04-25T03:09:28;9.23;;;8.32;;
75061;SDS011;63641;46.526;24.612;2023-04-25T03:11:55;8.57;;;7.78;;
75061;SDS011;63641;46.526;24.612;2023-04-25T03:14:22;8.95;;;8.07;;
75061;SDS011;63641;46.526;24.612;2023-04-25T03:16:48;10.85;;;8.00;;
75061;SDS011;63641;46.526;24.612;2023-04-25T03:19:15;9.75;;;8.50;;
75061;SDS011;63641;46.526;24.612;2023-04-25T03:21:45;8.90;;;8.10;;
75061;SDS011;63641;46.526;24.612;2023-04-25T03:24:11;9.70;;;8.27;;
75061;SDS011;63641;46.526;24.612;2023-04-25T03:26:38;8.88;;;8.10;;
75061;SDS011;63641;46.526;24.612;2023-04-25T03:29:05;10.90;;;8.25;;
75061;SDS011;63641;46.526;24.612;2023-04-25T03:31:32;9.75;;;8.77;;
75061;SDS011;63641;46.526;24.612;2023-04-25T03:33:59;8.75;;;7.95;;
75061;SDS011;63641;46.526;24.612;2023-04-25T03:36:26;10.20;;;8.07;;
75061;SDS011;63641;46.526;24.612;2023-04-25T03:38:53;8.80;;;8.00;;
75061;SDS011;63641;46.526;24.612;2023-04-25T03:41:19;9.00;;;8.20;;
75061;SDS011;63641;46.526;24.612;2023-04-25T03:43:47;9.73;;;8.85;;
75061;SDS011;63641;46.526;24.612;2023-04-25T03:46:14;10.80;;;9.80;;
75061;SDS011;63641;46.526;24.612;2023-04-25T03:48:41;10.30;;;9.38;;
75061;SDS011;63641;46.526;24.612;2023-04-25T03:51:11;10.43;;;9.43;;
75061;SDS011;63641;46.526;24.612;2023-04-25T03:53:38;11.25;;;8.88;;
75061;SDS011;63641;46.526;24.612;2023-04-25T03:56:04;10.38;;;9.38;;
75061;SDS011;63641;46.526;24.612;2023-04-25T03:58:32;10.48;;;9.43;;
75061;SDS011;63641;46.526;24.612;2023-04-25T04:00:58;11.10;;;9.98;;
75061;SDS011;63641;46.526;24.612;2023-04-25T04:03:25;9.98;;;9.05;;
75061;SDS011;63641;46.526;24.612;2023-04-25T04:05:53;10.20;;;9.30;;
75061;SDS011;63641;46.526;24.612;2023-04-25T04:08:20;10.52;;;9.40;;
75061;SDS011;63641;46.526;24.612;2023-04-25T04:10:46;16.02;;;14.25;;
75061;SDS011;63641;46.526;24.612;2023-04-25T04:13:13;15.55;;;13.85;;
75061;SDS011;63641;46.526;24.612;2023-04-25T04:15:40;14.65;;;13.10;;
75061;SDS011;63641;46.526;24.612;2023-04-25T04:18:07;19.15;;;14.90;;
75061;SDS011;63641;46.526;24.612;2023-04-25T04:20:34;18.65;;;15.13;;
75061;SDS011;63641;46.526;24.612;2023-04-25T04:23:01;16.35;;;14.43;;
75061;SDS011;63641;46.526;24.612;2023-04-25T04:25:27;21.27;;;16.70;;
75061;SDS011;63641;46.526;24.612;2023-04-25T04:27:55;18.58;;;14.90;;
75061;SDS011;63641;46.526;24.612;2023-04-25T04:30:22;16.55;;;14.18;;
75061;SDS011;63641;46.526;24.612;2023-04-25T04:35:23;14.40;;;12.80;;
75061;SDS011;63641;46.526;24.612;2023-04-25T04:37:51;12.40;;;11.10;;
75061;SDS011;63641;46.526;24.612;2023-04-25T04:40:17;13.15;;;11.55;;
75061;SDS011;63641;46.526;24.612;2023-04-25T04:42:46;12.32;;;10.70;;
75061;SDS011;63641;46.526;24.612;2023-04-25T04:45:12;11.80;;;10.55;;
75061;SDS011;63641;46.526;24.612;2023-04-25T04:47:40;14.02;;;11.00;;
75061;SDS011;63641;46.526;24.612;2023-04-25T04:50:07;12.32;;;11.18;;
75061;SDS011;63641;46.526;24.612;2023-04-25T04:52:35;12.57;;;11.38;;
75061;SDS011;63641;46.526;24.612;2023-04-25T04:55:03;12.75;;;11.45;;
75061;SDS011;63641;46.526;24.612;2023-04-25T04:57:31;12.13;;;10.93;;
75061;SDS011;63641;46.526;24.612;2023-04-25T04:59:59;11.98;;;10.57;;
75061;SDS011;63641;46.526;24.612;2023-04-25T05:02:26;12.95;;;11.30;;
75061;SDS011;63641;46.526;24.612;2023-04-25T05:04:53;13.05;;;10.23;;
75061;SDS011;63641;46.526;24.612;2023-04-25T05:07:20;12.13;;;11.02;;
75061;SDS011;63641;46.526;24.612;2023-04-25T05:09:47;10.75;;;9.85;;
75061;SDS011;63641;46.526;24.612;2023-04-25T05:12:16;11.70;;;10.60;;
75061;SDS011;63641;46.526;24.612;2023-04-25T05:14:42;12.00;;;10.77;;
75061;SDS011;63641;46.526;24.612;2023-04-25T05:17:09;11.43;;;10.32;;
75061;SDS011;63641;46.526;24.612;2023-04-25T05:19:36;11.88;;;10.73;;
75061;SDS011;63641;46.526;24.612;2023-04-25T05:22:04;11.75;;;10.73;;
75061;SDS011;63641;46.526;24.612;2023-04-25T05:24:31;11.15;;;10.07;;
75061;SDS011;63641;46.526;24.612;2023-04-25T05:26:57;12.63;;;11.32;;
75061;SDS011;63641;46.526;24.612;2023-04-25T05:29:24;12.38;;;11.13;;
75061;SDS011;63641;46.526;24.612;2023-04-25T05:31:51;11.95;;;10.85;;
75061;SDS011;63641;46.526;24.612;2023-04-25T05:34:19;11.43;;;10.32;;
75061;SDS011;63641;46.526;24.612;2023-04-25T05:36:46;10.95;;;9.85;;
75061;SDS011;63641;46.526;24.612;2023-04-25T05:39:17;11.55;;;10.45;;
75061;SDS011;63641;46.526;24.612;2023-04-25T05:41:44;16.58;;;10.70;;
75061;SDS011;63641;46.526;24.612;2023-04-25T05:44:11;14.18;;;10.85;;
75061;SDS011;63641;46.526;24.612;2023-04-25T05:46:38;12.52;;;10.30;;
75061;SDS011;63641;46.526;24.612;2023-04-25T05:49:05;12.60;;;11.23;;
75061;SDS011;63641;46.526;24.612;2023-04-25T05:51:31;11.77;;;10.68;;
75061;SDS011;63641;46.526;24.612;2023-04-25T05:53:58;13.65;;;11.43;;
75061;SDS011;63641;46.526;24.612;2023-04-25T05:56:25;13.57;;;12.25;;
75061;SDS011;63641;46.526;24.612;2023-04-25T05:58:52;15.32;;;13.15;;
75061;SDS011;63641;46.526;24.612;2023-04-25T06:01:19;14.10;;;12.70;;
75061;SDS011;63641;46.526;24.612;2023-04-25T06:03:48;13.80;;;12.40;;
75061;SDS011;63641;46.526;24.612;2023-04-25T06:06:15;13.52;;;12.15;;
75061;SDS011;63641;46.526;24.612;2023-04-25T06:08:42;13.85;;;12.40;;
75061;SDS011;63641;46.526;24.612;2023-04-25T06:11:13;13.88;;;12.57;;
75061;SDS011;63641;46.526;24.612;2023-04-25T06:13:40;12.52;;;11.32;;
75061;SDS011;63641;46.526;24.612;2023-04-25T06:16:07;15.00;;;11.55;;
75061;SDS011;63641;46.526;24.612;2023-04-25T06:18:34;11.68;;;10.40;;
75061;SDS011;63641;46.526;24.612;2023-04-25T06:21:00;11.23;;;9.57;;
75061;SDS011;63641;46.526;24.612;2023-04-25T06:23:27;10.93;;;8.82;;
75061;SDS011;63641;46.526;24.612;2023-04-25T06:25:54;10.50;;;8.93;;
75061;SDS011;63641;46.526;24.612;2023-04-25T06:28:21;9.95;;;8.95;;
75061;SDS011;63641;46.526;24.612;2023-04-25T06:30:48;8.88;;;8.13;;
75061;SDS011;63641;46.526;24.612;2023-04-25T06:33:15;9.07;;;8.27;;
75061;SDS011;63641;46.526;24.612;2023-04-25T06:35:41;9.07;;;7.40;;
75061;SDS011;63641;46.526;24.612;2023-04-25T06:38:08;7.80;;;6.88;;
75061;SDS011;63641;46.526;24.612;2023-04-25T06:40:35;8.80;;;7.93;;
75061;SDS011;63641;46.526;24.612;2023-04-25T06:43:02;8.35;;;7.55;;
75061;SDS011;63641;46.526;24.612;2023-04-25T06:45:29;8.48;;;7.68;;
75061;SDS011;63641;46.526;24.612;2023-04-25T06:47:56;7.95;;;7.25;;
75061;SDS011;63641;46.526;24.612;2023-04-25T06:50:22;6.47;;;5.97;;
75061;SDS011;63641;46.526;24.612;2023-04-25T06:52:49;8.57;;;7.35;;
75061;SDS011;63641;46.526;24.612;2023-04-25T06:55:16;7.60;;;6.85;;
75061;SDS011;63641;46.526;24.612;2023-04-25T06:57:43;8.00;;;6.10;;
75061;SDS011;63641;46.526;24.612;2023-04-25T07:00:10;7.05;;;6.15;;
75061;SDS011;63641;46.526;24.612;2023-04-25T07:02:37;7.03;;;6.05;;
75061;SDS011;63641;46.526;24.612;2023-04-25T07:05:04;6.85;;;6.15;;
75061;SDS011;63641;46.526;24.612;2023-04-25T07:07:31;6.53;;;5.93;;
75061;SDS011;63641;46.526;24.612;2023-04-25T07:09:58;6.63;;;6.00;;
75061;SDS011;63641;46.526;24.612;2023-04-25T07:12:25;6.63;;;5.93;;
75061;SDS011;63641;46.526;24.612;2023-04-25T07:14:52;7.43;;;6.68;;
75061;SDS011;63641;46.526;24.612;2023-04-25T07:17:18;6.63;;;6.03;;
75061;SDS011;63641;46.526;24.612;2023-04-25T07:19:45;7.75;;;5.82;;
75061;SDS011;63641;46.526;24.612;2023-04-25T07:22:12;6.47;;;5.72;;
75061;SDS011;63641;46.526;24.612;2023-04-25T07:24:39;7.90;;;5.82;;
75061;SDS011;63641;46.526;24.612;2023-04-25T07:27:06;6.30;;;5.70;;
75061;SDS011;63641;46.526;24.612;2023-04-25T07:29:33;7.40;;;6.75;;
75061;SDS011;63641;46.526;24.612;2023-04-25T07:32:02;6.40;;;5.80;;
75061;SDS011;63641;46.526;24.612;2023-04-25T07:34:30;6.05;;;5.45;;
75061;SDS011;63641;46.526;24.612;2023-04-25T07:36:57;5.78;;;5.20;;
75061;SDS011;63641;46.526;24.612;2023-04-25T07:39:25;11.02;;;5.28;;
75061;SDS011;63641;46.526;24.612;2023-04-25T07:41:52;6.07;;;5.57;;
75061;SDS011;63641;46.526;24.612;2023-04-25T07:44:20;6.90;;;5.80;;
75061;SDS011;63641;46.526;24.612;2023-04-25T07:46:47;6.15;;;5.13;;
75061;SDS011;63641;46.526;24.612;2023-04-25T07:49:14;6.25;;;5.28;;
75061;SDS011;63641;46.526;24.612;2023-04-25T07:51:41;5.97;;;5.43;;
75061;SDS011;63641;46.526;24.612;2023-04-25T07:54:12;5.85;;;5.22;;
75061;SDS011;63641;46.526;24.612;2023-04-25T07:56:40;5.85;;;5.00;;
75061;SDS011;63641;46.526;24.612;2023-04-25T07:59:18;6.20;;;5.30;;
75061;SDS011;63641;46.526;24.612;2023-04-25T08:01:45;5.97;;;5.43;;
75061;SDS011;63641;46.526;24.612;2023-04-25T08:07:30;5.50;;;5.00;;
75061;SDS011;63641;46.526;24.612;2023-04-25T08:09:57;5.30;;;4.80;;
75061;SDS011;63641;46.526;24.612;2023-04-25T08:12:24;5.60;;;5.00;;
75061;SDS011;63641;46.526;24.612;2023-04-25T08:14:51;4.97;;;4.53;;
75061;SDS011;63641;46.526;24.612;2023-04-25T08:17:17;5.75;;;4.80;;
75061;SDS011;63641;46.526;24.612;2023-04-25T08:19:44;5.28;;;4.80;;
75061;SDS011;63641;46.526;24.612;2023-04-25T08:22:11;5.78;;;5.18;;
75061;SDS011;63641;46.526;24.612;2023-04-25T08:24:38;7.13;;;4.93;;
75061;SDS011;63641;46.526;24.612;2023-04-25T08:27:05;7.40;;;4.95;;
75061;SDS011;63641;46.526;24.612;2023-04-25T08:29:34;5.72;;;5.20;;
75061;SDS011;63641;46.526;24.612;2023-04-25T08:32:01;6.63;;;4.97;;
75061;SDS011;63641;46.526;24.612;2023-04-25T08:34:27;5.15;;;4.57;;
75061;SDS011;63641;46.526;24.612;2023-04-25T08:36:54;5.90;;;4.70;;
75061;SDS011;63641;46.526;24.612;2023-04-25T08:39:21;5.68;;;4.90;;
75061;SDS011;63641;46.526;24.612;2023-04-25T08:41:48;4.68;;;4.20;;
75061;SDS011;63641;46.526;24.612;2023-04-25T08:44:15;4.85;;;4.30;;
75061;SDS011;63641;46.526;24.612;2023-04-25T08:46:43;4.70;;;3.92;;
75061;SDS011;63641;46.526;24.612;2023-04-25T08:49:16;5.78;;;3.75;;
75061;SDS011;63641;46.526;24.612;2023-04-25T08:51:45;4.75;;;4.18;;
75061;SDS011;63641;46.526;24.612;2023-04-25T08:54:13;4.68;;;3.85;;
75061;SDS011;63641;46.526;24.612;2023-04-25T08:57:03;4.43;;;4.03;;
75061;SDS011;63641;46.526;24.612;2023-04-25T08:59:31;4.70;;;4.20;;
75061;SDS011;63641;46.526;24.612;2023-04-25T09:01:58;3.63;;;3.33;;
75061;SDS011;63641;46.526;24.612;2023-04-25T09:04:27;4.22;;;3.83;;
75061;SDS011;63641;46.526;24.612;2023-04-25T09:06:56;4.38;;;3.70;;
75061;SDS011;63641;46.526;24.612;2023-04-25T09:09:23;4.53;;;4.13;;
75061;SDS011;63641;46.526;24.612;2023-04-25T09:11:50;4.70;;;3.75;;
75061;SDS011;63641;46.526;24.612;2023-04-25T09:14:22;4.03;;;3.63;;
75061;SDS011;63641;46.526;24.612;2023-04-25T09:22:06;4.07;;;3.63;;
75061;SDS011;63641;46.526;24.612;2023-04-25T09:24:37;4.45;;;4.03;;
75061;SDS011;63641;46.526;24.612;2023-04-25T09:27:06;5.50;;;3.83;;
75061;SDS011;63641;46.526;24.612;2023-04-25T09:29:35;4.35;;;3.80;;
75061;SDS011;63641;46.526;24.612;2023-04-25T09:32:17;4.28;;;3.60;;
75061;SDS011;63641;46.526;24.612;2023-04-25T09:34:49;4.90;;;4.40;;
75061;SDS011;63641;46.526;24.612;2023-04-25T09:37:35;3.83;;;3.53;;
75061;SDS011;63641;46.526;24.612;2023-04-25T09:40:04;3.75;;;3.45;;
75061;SDS011;63641;46.526;24.612;2023-04-25T09:42:33;4.30;;;3.90;;
75061;SDS011;63641;46.526;24.612;2023-04-25T09:45:01;4.30;;;3.90;;
75061;SDS011;63641;46.526;24.612;2023-04-25T09:47:30;5.00;;;3.95;;
75061;SDS011;63641;46.526;24.612;2023-04-25T09:49:57;4.53;;;3.90;;
75061;SDS011;63641;46.526;24.612;2023-04-25T09:52:24;4.20;;;3.90;;
75061;SDS011;63641;46.526;24.612;2023-04-25T09:54:52;4.15;;;3.80;;
75061;SDS011;63641;46.526;24.612;2023-04-25T09:57:19;4.10;;;3.80;;
75061;SDS011;63641;46.526;24.612;2023-04-25T09:59:48;4.00;;;3.60;;
75061;SDS011;63641;46.526;24.612;2023-04-25T10:02:17;4.07;;;3.65;;
75061;SDS011;63641;46.526;24.612;2023-04-25T10:04:50;4.07;;;3.60;;
75061;SDS011;63641;46.526;24.612;2023-04-25T10:07:19;3.80;;;3.50;;
75061;SDS011;63641;46.526;24.612;2023-04-25T10:09:48;4.57;;;3.83;;
75061;SDS011;63641;46.526;24.612;2023-04-25T10:12:16;4.40;;;3.88;;
75061;SDS011;63641;46.526;24.612;2023-04-25T10:14:43;3.90;;;3.60;;
75061;SDS011;63641;46.526;24.612;2023-04-25T10:17:12;4.20;;;3.80;;
75061;SDS011;63641;46.526;24.612;2023-04-25T10:19:39;5.15;;;4.10;;
75061;SDS011;63641;46.526;24.612;2023-04-25T10:22:07;4.63;;;4.00;;
75061;SDS011;63641;46.526;24.612;2023-04-25T10:24:44;4.10;;;3.70;;
75061;SDS011;63641;46.526;24.612;2023-04-25T10:27:12;4.07;;;3.55;;
75061;SDS011;63641;46.526;24.612;2023-04-25T10:29:39;3.90;;;3.50;;
75061;SDS011;63641;46.526;24.612;2023-04-25T10:32:09;4.30;;;3.72;;
75061;SDS011;63641;46.526;24.612;2023-04-25T10:34:43;3.58;;;3.28;;
75061;SDS011;63641;46.526;24.612;2023-04-25T10:37:13;4.55;;;3.35;;
75061;SDS011;63641;46.526;24.612;2023-04-25T10:39:40;3.85;;;3.50;;
75061;SDS011;63641;46.526;24.612;2023-04-25T10:42:08;5.03;;;3.63;;
75061;SDS011;63641;46.526;24.612;2023-04-25T10:44:36;4.55;;;3.92;;
75061;SDS011;63641;46.526;24.612;2023-04-25T10:47:05;4.80;;;4.28;;
75061;SDS011;63641;46.526;24.612;2023-04-25T10:49:34;5.20;;;3.90;;
75061;SDS011;63641;46.526;24.612;2023-04-25T10:54:56;6.75;;;3.83;;
75061;SDS011;63641;46.526;24.612;2023-04-25T11:00:06;4.90;;;4.40;;
75061;SDS011;63641;46.526;24.612;2023-04-25T11:02:51;3.72;;;3.35;;
75061;SDS011;63641;46.526;24.612;2023-04-25T11:08:26;4.10;;;3.70;;
75061;SDS011;63641;46.526;24.612;2023-04-25T11:11:14;3.85;;;3.50;;
75061;SDS011;63641;46.526;24.612;2023-04-25T11:13:42;4.30;;;3.92;;
75061;SDS011;63641;46.526;24.612;2023-04-25T11:16:13;3.83;;;3.42;;
75061;SDS011;63641;46.526;24.612;2023-04-25T11:18:43;3.78;;;3.03;;
75061;SDS011;63641;46.526;24.612;2023-04-25T11:21:14;3.70;;;3.40;;
75061;SDS011;63641;46.526;24.612;2023-04-25T11:23:44;4.70;;;4.20;;
75061;SDS011;63641;46.526;24.612;2023-04-25T11:26:14;3.73;;;3.43;;
75061;SDS011;63641;46.526;24.612;2023-04-25T11:28:44;4.97;;;4.57;;
75061;SDS011;63641;46.526;24.612;2023-04-25T11:31:11;3.65;;;3.35;;
75061;SDS011;63641;46.526;24.612;2023-04-25T11:33:38;5.88;;;3.30;;
75061;SDS011;63641;46.526;24.612;2023-04-25T11:36:07;3.60;;;3.30;;
75061;SDS011;63641;46.526;24.612;2023-04-25T11:38:33;3.65;;;3.28;;
75061;SDS011;63641;46.526;24.612;2023-04-25T11:41:00;4.90;;;3.15;;
75061;SDS011;63641;46.526;24.612;2023-04-25T11:43:27;4.55;;;3.53;;
75061;SDS011;63641;46.526;24.612;2023-04-25T11:45:54;3.88;;;3.53;;
75061;SDS011;63641;46.526;24.612;2023-04-25T11:48:21;3.40;;;3.10;;
75061;SDS011;63641;46.526;24.612;2023-04-25T11:50:51;4.00;;;3.20;;
75061;SDS011;63641;46.526;24.612;2023-04-25T11:53:19;2.83;;;2.63;;
75061;SDS011;63641;46.526;24.612;2023-04-25T11:55:46;3.55;;;3.22;;
75061;SDS011;63641;46.526;24.612;2023-04-25T11:58:14;3.75;;;3.20;;
75061;SDS011;63641;46.526;24.612;2023-04-25T12:00:41;3.83;;;3.03;;
75061;SDS011;63641;46.526;24.612;2023-04-25T12:03:17;3.03;;;2.83;;
75061;SDS011;63641;46.526;24.612;2023-04-25T12:05:45;4.47;;;3.40;;
75061;SDS011;63641;46.526;24.612;2023-04-25T12:08:13;4.10;;;3.70;;
75061;SDS011;63641;46.526;24.612;2023-04-25T12:10:41;3.47;;;3.17;;
75061;SDS011;63641;46.526;24.612;2023-04-25T12:13:25;3.75;;;3.45;;
75061;SDS011;63641;46.526;24.612;2023-04-25T12:15:55;4.20;;;3.80;;
75061;SDS011;63641;46.526;24.612;2023-04-25T12:18:23;5.07;;;3.90;;
75061;SDS011;63641;46.526;24.612;2023-04-25T12:20:54;4.18;;;3.75;;
75061;SDS011;63641;46.526;24.612;2023-04-25T12:23:27;3.58;;;3.28;;
75061;SDS011;63641;46.526;24.612;2023-04-25T12:25:54;3.80;;;3.50;;
75061;SDS011;63641;46.526;24.612;2023-04-25T12:28:22;3.95;;;3.60;;
75061;SDS011;63641;46.526;24.612;2023-04-25T12:33:36;5.25;;;4.20;;
75061;SDS011;63641;46.526;24.612;2023-04-25T12:36:04;4.82;;;4.10;;
75061;SDS011;63641;46.526;24.612;2023-04-25T12:38:39;5.57;;;4.10;;
75061;SDS011;63641;46.526;24.612;2023-04-25T12:41:07;5.45;;;3.80;;
75061;SDS011;63641;46.526;24.612;2023-04-25T12:43:34;4.00;;;3.47;;
75061;SDS011;63641;46.526;24.612;2023-04-25T12:46:01;4.28;;;3.03;;
75061;SDS011;63641;46.526;24.612;2023-04-25T12:48:28;3.40;;;3.10;;
75061;SDS011;63641;46.526;24.612;2023-04-25T12:50:54;3.33;;;3.03;;
75061;SDS011;63641;46.526;24.612;2023-04-25T12:53:22;3.63;;;3.20;;
75061;SDS011;63641;46.526;24.612;2023-04-25T12:55:50;3.50;;;2.83;;
75061;SDS011;63641;46.526;24.612;2023-04-25T12:58:17;4.50;;;2.13;;
75061;SDS011;63641;46.526;24.612;2023-04-25T13:00:45;2.45;;;2.00;;
75061;SDS011;63641;46.526;24.612;2023-04-25T13:03:12;1.85;;;1.70;;
75061;SDS011;63641;46.526;24.612;2023-04-25T13:05:39;1.80;;;1.70;;
75061;SDS011;63641;46.526;24.612;2023-04-25T13:08:06;1.70;;;1.60;;
75061;SDS011;63641;46.526;24.612;2023-04-25T13:10:33;1.92;;;1.60;;
75061;SDS011;63641;46.526;24.612;2023-04-25T13:13:00;2.30;;;2.10;;
75061;SDS011;63641;46.526;24.612;2023-04-25T13:15:27;1.65;;;1.55;;
75061;SDS011;63641;46.526;24.612;2023-04-25T13:17:54;1.77;;;1.67;;
75061;SDS011;63641;46.526;24.612;2023-04-25T13:20:22;2.10;;;2.00;;
75061;SDS011;63641;46.526;24.612;2023-04-25T13:22:49;1.80;;;1.70;;
75061;SDS011;63641;46.526;24.612;2023-04-25T13:25:16;1.75;;;1.65;;
75061;SDS011;63641;46.526;24.612;2023-04-25T13:27:43;2.42;;;1.90;;
75061;SDS011;63641;46.526;24.612;2023-04-25T13:30:11;2.17;;;1.80;;
75061;SDS011;63641;46.526;24.612;2023-04-25T13:32:38;2.58;;;1.88;;
75061;SDS011;63641;46.526;24.612;2023-04-25T13:35:06;2.05;;;1.80;;
75061;SDS011;63641;46.526;24.612;2023-04-25T13:37:36;3.03;;;1.90;;
75061;SDS011;63641;46.526;24.612;2023-04-25T13:40:04;2.20;;;2.00;;
75061;SDS011;63641;46.526;24.612;2023-04-25T13:42:35;2.05;;;1.85;;
75061;SDS011;63641;46.526;24.612;2023-04-25T13:45:03;2.47;;;2.28;;
75061;SDS011;63641;46.526;24.612;2023-04-25T13:47:29;2.45;;;2.25;;
75061;SDS011;63641;46.526;24.612;2023-04-25T13:49:56;3.28;;;2.10;;
75061;SDS011;63641;46.526;24.612;2023-04-25T13:52:23;2.30;;;2.10;;
75061;SDS011;63641;46.526;24.612;2023-04-25T13:54:50;2.38;;;2.17;;
75061;SDS011;63641;46.526;24.612;2023-04-25T13:57:17;3.15;;;1.90;;
75061;SDS011;63641;46.526;24.612;2023-04-25T13:59:45;2.63;;;2.35;;
75061;SDS011;63641;46.526;24.612;2023-04-25T14:02:12;2.13;;;1.92;;
75061;SDS011;63641;46.526;24.612;2023-04-25T14:04:40;2.22;;;2.03;;
75061;SDS011;63641;46.526;24.612;2023-04-25T14:07:07;3.70;;;2.03;;
75061;SDS011;63641;46.526;24.612;2023-04-25T14:09:34;2.40;;;1.90;;
75061;SDS011;63641;46.526;24.612;2023-04-25T14:12:01;3.00;;;2.20;;
75061;SDS011;63641;46.526;24.612;2023-04-25T14:14:28;4.25;;;2.90;;
75061;SDS011;63641;46.526;24.612;2023-04-25T14:16:55;5.63;;;3.10;;
75061;SDS011;63641;46.526;24.612;2023-04-25T14:19:23;4.25;;;3.60;;
75061;SDS011;63641;46.526;24.612;2023-04-25T14:21:50;3.38;;;3.08;;
75061;SDS011;63641;46.526;24.612;2023-04-25T14:24:17;2.67;;;2.47;;
75061;SDS011;63641;46.526;24.612;2023-04-25T14:26:44;3.08;;;2.83;;
75061;SDS011;63641;46.526;24.612;2023-04-25T14:29:11;2.38;;;2.17;;
75061;SDS011;63641;46.526;24.612;2023-04-25T14:31:38;2.28;;;1.88;;
75061;SDS011;63641;46.526;24.612;2023-04-25T14:34:07;1.90;;;1.80;;
75061;SDS011;63641;46.526;24.612;2023-04-25T14:36:35;1.73;;;1.48;;
75061;SDS011;63641;46.526;24.612;2023-04-25T14:39:02;34.72;;;33.38;;
75061;SDS011;63641;46.526;24.612;2023-04-25T14:41:31;42.83;;;40.85;;
75061;SDS011;63641;46.526;24.612;2023-04-25T14:43:58;39.42;;;37.88;;
75061;SDS011;63641;46.526;24.612;2023-04-25T14:46:25;38.00;;;36.28;;
75061;SDS011;63641;46.526;24.612;2023-04-25T14:48:52;52.28;;;49.58;;
75061;SDS011;63641;46.526;24.612;2023-04-25T14:51:22;99.38;;;92.65;;
75061;SDS011;63641;46.526;24.612;2023-04-25T14:53:48;80.38;;;76.03;;
75061;SDS011;63641;46.526;24.612;2023-04-25T14:56:17;47.38;;;45.28;;